Time,TemperatureF,DewpointF,PressureIn,WindDirection,WindDirectionDegrees,WindSpeedMPH,WindSpeedGustMPH,Humidity,HourlyPrecipIn,Conditions,Clouds,dailyrainin,SoftwareType,DateUTC
2013-09-07 00:14:00,71.9,62.0,29.86,SSW,197,1.0,5.0,71,0.00,,,0.00,weatherlink.com 1.10,2013-09-07 05:14:00,
2013-09-07 00:30:00,71.8,62.0,29.86,SSW,198,0.0,3.0,72,0.00,,,0.00,weatherlink.com 1.10,2013-09-07 05:30:00,
2013-09-07 00:44:00,71.4,62.0,29.86,SW,218,0.0,2.0,73,0.00,,,0.00,weatherlink.com 1.10,2013-09-07 05:44:00,
2013-09-07 00:59:00,71.1,62.0,29.86,SSW,213,0.0,2.0,73,0.00,,,0.00,weatherlink.com 1.10,2013-09-07 05:59:00,
2013-09-07 01:14:00,70.9,62.0,29.86,SSW,199,1.0,3.0,73,0.00,,,0.00,weatherlink.com 1.10,2013-09-07 06:14:00,
2013-09-07 01:29:00,70.7,62.0,29.87,SSW,201,0.0,3.0,74,0.00,,,0.00,weatherlink.com 1.10,2013-09-07 06:29:00,
2013-09-07 01:44:00,70.7,62.0,29.86,SW,219,1.0,5.0,74,0.00,,,0.00,weatherlink.com 1.10,2013-09-07 06:44:00,
2013-09-07 01:59:00,70.5,62.0,29.86,SSW,193,0.0,3.0,75,0.00,,,0.00,weatherlink.com 1.10,2013-09-07 06:59:00,
2013-09-07 02:14:00,70.1,62.0,29.86,South,191,0.0,2.0,76,0.00,,,0.00,weatherlink.com 1.10,2013-09-07 07:14:00,
2013-09-07 02:29:00,69.9,62.0,29.86,South,191,1.0,3.0,77,0.00,,,0.00,weatherlink.com 1.10,2013-09-07 07:29:00,
2013-09-07 02:44:00,69.6,62.0,29.85,SSW,201,0.0,3.0,78,0.00,,,0.00,weatherlink.com 1.10,2013-09-07 07:44:00,
2013-09-07 02:59:00,69.2,62.0,29.85,SSW,200,0.0,2.0,79,0.00,,,0.00,weatherlink.com 1.10,2013-09-07 07:59:00,
2013-09-07 03:14:00,69.0,63.0,29.85,WSW,245,1.0,3.0,80,0.00,,,0.00,weatherlink.com 1.10,2013-09-07 08:14:00,
2013-09-07 03:29:00,69.0,63.0,29.84,SW,214,0.0,4.0,80,0.00,,,0.00,weatherlink.com 1.10,2013-09-07 08:29:00,
2013-09-07 03:45:00,68.7,63.0,29.84,SSW,204,1.0,4.0,81,0.00,,,0.00,weatherlink.com 1.10,2013-09-07 08:45:00,
2013-09-07 04:00:00,68.4,63.0,29.84,SSW,205,0.0,3.0,82,0.00,,,0.00,weatherlink.com 1.10,2013-09-07 09:00:00,
2013-09-07 04:15:00,68.4,63.0,29.84,SW,217,0.0,3.0,83,0.00,,,0.00,weatherlink.com 1.10,2013-09-07 09:15:00,
2013-09-07 04:30:00,68.4,63.0,29.84,SW,217,1.0,3.0,83,0.00,,,0.00,weatherlink.com 1.10,2013-09-07 09:30:00,
2013-09-07 04:45:00,68.5,63.0,29.83,SSW,195,1.0,3.0,83,0.00,,,0.00,weatherlink.com 1.10,2013-09-07 09:45:00,
2013-09-07 05:00:00,68.6,63.0,29.84,SSW,206,0.0,4.0,83,0.00,,,0.00,weatherlink.com 1.10,2013-09-07 10:00:00,
2013-09-07 05:15:00,68.6,64.0,29.83,WSW,245,1.0,2.0,84,0.00,,,0.00,weatherlink.com 1.10,2013-09-07 10:15:00,
2013-09-07 05:30:00,68.7,64.0,29.83,SW,226,1.0,4.0,84,0.00,,,0.00,weatherlink.com 1.10,2013-09-07 10:30:00,
2013-09-07 05:45:00,68.6,64.0,29.83,SSW,204,1.0,4.0,84,0.00,,,0.00,weatherlink.com 1.10,2013-09-07 10:45:00,
2013-09-07 06:00:00,68.3,64.0,29.84,SSW,206,0.0,2.0,85,0.00,,,0.00,weatherlink.com 1.10,2013-09-07 11:00:00,
2013-09-07 06:15:00,68.3,64.0,29.84,West,266,0.0,2.0,85,0.00,,,0.00,weatherlink.com 1.10,2013-09-07 11:15:00,
2013-09-07 06:30:00,67.8,64.0,29.84,West,266,0.0,0.0,86,0.00,,,0.00,weatherlink.com 1.10,2013-09-07 11:30:00,
2013-09-07 06:45:00,67.6,64.0,29.84,West,266,0.0,0.0,87,0.00,,,0.00,weatherlink.com 1.10,2013-09-07 11:45:00,
2013-09-07 07:00:00,67.2,63.0,29.85,West,266,0.0,0.0,87,0.00,,,0.00,weatherlink.com 1.10,2013-09-07 12:00:00,
2013-09-07 07:15:00,67.4,64.0,29.84,West,268,0.0,0.0,88,0.00,,,0.00,weatherlink.com 1.10,2013-09-07 12:15:00,
2013-09-07 07:30:00,67.8,64.0,29.84,East,99,0.0,2.0,87,0.00,,,0.00,weatherlink.com 1.10,2013-09-07 12:30:00,
2013-09-07 07:45:00,68.4,64.0,29.84,East,97,1.0,2.0,86,0.00,,,0.00,weatherlink.com 1.10,2013-09-07 12:45:00,
2013-09-07 08:00:00,69.1,65.0,29.84,ESE,110,0.0,3.0,85,0.00,,,0.00,weatherlink.com 1.10,2013-09-07 13:00:00,
2013-09-07 08:15:00,69.9,65.0,29.84,East,86,0.0,3.0,84,0.00,,,0.00,weatherlink.com 1.10,2013-09-07 13:15:00,
2013-09-07 08:30:00,71.9,66.0,29.84,East,96,0.0,0.0,82,0.00,,,0.00,weatherlink.com 1.10,2013-09-07 13:30:00,
2013-09-07 08:45:00,73.7,66.0,29.84,SW,217,1.0,3.0,78,0.00,,,0.00,weatherlink.com 1.10,2013-09-07 13:45:00,
2013-09-07 09:00:00,74.3,67.0,29.85,SW,214,2.0,4.0,78,0.00,,,0.00,weatherlink.com 1.10,2013-09-07 14:00:00,
2013-09-07 09:15:00,75.6,68.0,29.85,SSW,212,1.0,4.0,76,0.00,,,0.00,weatherlink.com 1.10,2013-09-07 14:15:00,
2013-09-07 09:30:00,76.5,68.0,29.84,SW,216,2.0,6.0,75,0.00,,,0.00,weatherlink.com 1.10,2013-09-07 14:30:00,
2013-09-07 09:45:00,77.4,69.0,29.84,WSW,238,2.0,7.0,74,0.00,,,0.00,weatherlink.com 1.10,2013-09-07 14:45:00,
2013-09-07 10:00:00,78.2,69.0,29.84,West,267,1.0,4.0,73,0.00,,,0.00,weatherlink.com 1.10,2013-09-07 15:00:00,
2013-09-07 10:15:00,79.3,70.0,29.84,WNW,292,1.0,3.0,72,0.00,,,0.00,weatherlink.com 1.10,2013-09-07 15:15:00,
2013-09-07 10:30:00,80.6,70.0,29.84,NNE,20,0.0,4.0,71,0.00,,,0.00,weatherlink.com 1.10,2013-09-07 15:30:00,
2013-09-07 10:45:00,81.3,70.0,29.84,West,265,1.0,5.0,69,0.00,,,0.00,weatherlink.com 1.10,2013-09-07 15:45:00,
2013-09-07 11:00:00,81.9,71.0,29.84,NNW,340,0.0,5.0,70,0.00,,,0.00,weatherlink.com 1.10,2013-09-07 16:00:00,
2013-09-07 11:15:00,83.1,71.0,29.83,ESE,105,1.0,5.0,67,0.00,,,0.00,weatherlink.com 1.10,2013-09-07 16:15:00,
2013-09-07 11:30:00,83.6,71.0,29.82,East,98,1.0,5.0,66,0.00,,,0.00,weatherlink.com 1.10,2013-09-07 16:30:00,
2013-09-07 11:45:00,84.2,71.0,29.82,West,259,0.0,6.0,65,0.00,,,0.00,weatherlink.com 1.10,2013-09-07 16:45:00,
2013-09-07 12:01:00,85.5,72.0,29.83,North,349,1.0,4.0,64,0.00,,,0.00,weatherlink.com 1.10,2013-09-07 17:01:00,
2013-09-07 12:16:00,85.6,72.0,29.82,NW,311,1.0,5.0,64,0.00,,,0.00,weatherlink.com 1.10,2013-09-07 17:16:00,
2013-09-07 12:31:00,85.8,72.0,29.82,North,7,2.0,5.0,64,0.00,,,0.00,weatherlink.com 1.10,2013-09-07 17:31:00,
2013-09-07 12:46:00,87.0,72.0,29.82,ENE,72,1.0,5.0,62,0.00,,,0.00,weatherlink.com 1.10,2013-09-07 17:46:00,
2013-09-07 13:01:00,88.4,73.0,29.82,NW,324,0.0,4.0,60,0.00,,,0.00,weatherlink.com 1.10,2013-09-07 18:01:00,
2013-09-07 13:16:00,89.2,73.0,29.82,East,94,1.0,4.0,59,0.00,,,0.00,weatherlink.com 1.10,2013-09-07 18:16:00,
2013-09-07 13:31:00,88.3,73.0,29.82,ESE,107,0.0,5.0,60,0.00,,,0.00,weatherlink.com 1.10,2013-09-07 18:31:00,
2013-09-07 13:46:00,89.7,74.0,29.82,ENE,68,0.0,5.0,60,0.00,,,0.00,weatherlink.com 1.10,2013-09-07 18:46:00,
2013-09-07 14:01:00,88.4,73.0,29.83,SW,229,1.0,4.0,61,0.00,,,0.00,weatherlink.com 1.10,2013-09-07 19:01:00,
2013-09-07 14:16:00,88.6,73.0,29.83,SE,125,3.0,6.0,61,0.00,,,0.00,weatherlink.com 1.10,2013-09-07 19:16:00,
2013-09-07 14:31:00,88.8,74.0,29.83,East,100,0.0,3.0,61,0.00,,,0.00,weatherlink.com 1.10,2013-09-07 19:31:00,
2013-09-07 14:46:00,87.9,74.0,29.82,SE,137,0.0,2.0,63,0.00,,,0.00,weatherlink.com 1.10,2013-09-07 19:46:00,
2013-09-07 15:01:00,87.9,74.0,29.82,East,88,2.0,4.0,63,0.00,,,0.00,weatherlink.com 1.10,2013-09-07 20:01:00,
2013-09-07 15:16:00,88.6,73.0,29.82,NNE,32,0.0,0.0,61,0.00,,,0.00,weatherlink.com 1.10,2013-09-07 20:16:00,
2013-09-07 15:31:00,89.8,75.0,29.82,West,269,0.0,0.0,61,0.00,,,0.00,weatherlink.com 1.10,2013-09-07 20:31:00,
2013-09-07 15:46:00,89.2,74.0,29.82,ENE,70,0.0,3.0,61,0.00,,,0.00,weatherlink.com 1.10,2013-09-07 20:46:00,
2013-09-07 16:01:00,89.0,74.0,29.82,ESE,103,1.0,3.0,61,0.00,,,0.00,weatherlink.com 1.10,2013-09-07 21:01:00,
2013-09-07 16:16:00,88.8,74.0,29.82,East,96,2.0,2.0,62,0.00,,,0.00,weatherlink.com 1.10,2013-09-07 21:16:00,
2013-09-07 16:31:00,88.7,74.0,29.82,NNE,13,0.0,2.0,63,0.00,,,0.00,weatherlink.com 1.10,2013-09-07 21:31:00,
2013-09-07 16:46:00,88.8,75.0,29.81,NNW,335,0.0,4.0,63,0.00,,,0.00,weatherlink.com 1.10,2013-09-07 21:46:00,
2013-09-07 17:01:00,88.7,75.0,29.81,ESE,116,0.0,3.0,64,0.00,,,0.00,weatherlink.com 1.10,2013-09-07 22:01:00,
2013-09-07 17:16:00,89.3,75.0,29.81,East,91,1.0,4.0,63,0.00,,,0.00,weatherlink.com 1.10,2013-09-07 22:16:00,
2013-09-07 17:31:00,88.1,75.0,29.81,ESE,110,0.0,3.0,65,0.00,,,0.00,weatherlink.com 1.10,2013-09-07 22:31:00,
2013-09-07 17:46:00,88.0,74.0,29.81,NE,52,0.0,4.0,64,0.00,,,0.00,weatherlink.com 1.10,2013-09-07 22:46:00,
2013-09-07 18:01:00,87.9,75.0,29.81,East,79,0.0,3.0,65,0.00,,,0.00,weatherlink.com 1.10,2013-09-07 23:01:00,
2013-09-07 18:16:00,87.7,75.0,29.82,NW,315,1.0,4.0,65,0.00,,,0.00,weatherlink.com 1.10,2013-09-07 23:16:00,
2013-09-07 18:31:00,87.4,75.0,29.82,ESE,108,1.0,3.0,66,0.00,,,0.00,weatherlink.com 1.10,2013-09-07 23:31:00,
2013-09-07 18:46:00,86.6,75.0,29.83,East,82,0.0,3.0,68,0.00,,,0.00,weatherlink.com 1.10,2013-09-07 23:46:00,
2013-09-07 19:01:00,86.0,75.0,29.83,ESE,103,0.0,1.0,70,0.00,,,0.00,weatherlink.com 1.10,2013-09-08 00:01:00,
2013-09-07 19:16:00,85.5,75.0,29.84,ESE,103,0.0,0.0,71,0.00,,,0.00,weatherlink.com 1.10,2013-09-08 00:16:00,
2013-09-07 19:31:00,84.8,75.0,29.84,ESE,103,0.0,0.0,72,0.00,,,0.00,weatherlink.com 1.10,2013-09-08 00:31:00,
2013-09-07 19:46:00,83.8,75.0,29.84,ESE,103,0.0,0.0,75,0.00,,,0.00,weatherlink.com 1.10,2013-09-08 00:46:00,
2013-09-07 20:01:00,82.7,75.0,29.84,ESE,103,0.0,0.0,77,0.00,,,0.00,weatherlink.com 1.10,2013-09-08 01:01:00,
2013-09-07 20:16:00,81.9,75.0,29.85,ESE,103,0.0,0.0,79,0.00,,,0.00,weatherlink.com 1.10,2013-09-08 01:16:00,
2013-09-07 20:31:00,81.5,75.0,29.85,North,8,0.0,1.0,80,0.00,,,0.00,weatherlink.com 1.10,2013-09-08 01:31:00,
2013-09-07 20:46:00,81.0,74.0,29.85,NNE,14,0.0,2.0,79,0.00,,,0.00,weatherlink.com 1.10,2013-09-08 01:46:00,
2013-09-07 21:01:00,80.3,74.0,29.86,North,349,0.0,2.0,80,0.00,,,0.00,weatherlink.com 1.10,2013-09-08 02:01:00,
2013-09-07 21:16:00,79.1,73.0,29.86,NNE,30,0.0,3.0,82,0.00,,,0.00,weatherlink.com 1.10,2013-09-08 02:16:00,
2013-09-07 21:31:00,78.7,73.0,29.85,NNE,13,0.0,1.0,83,0.00,,,0.00,weatherlink.com 1.10,2013-09-08 02:31:00,
2013-09-07 21:46:00,78.5,73.0,29.86,North,355,0.0,1.0,83,0.00,,,0.00,weatherlink.com 1.10,2013-09-08 02:46:00,
2013-09-07 22:01:00,77.7,73.0,29.86,North,355,0.0,0.0,85,0.00,,,0.00,weatherlink.com 1.10,2013-09-08 03:01:00,
2013-09-07 22:16:00,77.2,73.0,29.86,North,355,0.0,0.0,86,0.00,,,0.00,weatherlink.com 1.10,2013-09-08 03:16:00,
2013-09-07 22:31:00,76.8,72.0,29.86,North,354,0.0,0.0,86,0.00,,,0.00,weatherlink.com 1.10,2013-09-08 03:31:00,
2013-09-07 22:47:00,76.3,72.0,29.86,North,355,0.0,1.0,87,0.00,,,0.00,weatherlink.com 1.10,2013-09-08 03:47:00,
2013-09-07 23:01:00,75.9,72.0,29.86,North,354,0.0,1.0,88,0.00,,,0.00,weatherlink.com 1.10,2013-09-08 04:01:00,
2013-09-07 23:16:00,75.3,72.0,29.86,NNE,27,0.0,0.0,89,0.00,,,0.00,weatherlink.com 1.10,2013-09-08 04:16:00,
2013-09-07 23:31:00,74.8,72.0,29.86,NNE,26,0.0,0.0,90,0.00,,,0.00,weatherlink.com 1.10,2013-09-08 04:31:00,
2013-09-07 23:46:00,74.6,72.0,29.87,NNE,27,0.0,0.0,90,0.00,,,0.00,weatherlink.com 1.10,2013-09-08 04:46:00,